Maytown, Washington
Current Conditions -  °F | °C
As of 6:54 PM on Sunday 21 Dec 2014 (Local Time) from KOLM Reporting Station
Scattered Clouds Scattered Clouds  
Wind Chill: 50°   Ceiling: Unl
Heat Index: 50°   Visibility: 8mi
Dew Point: 46°   Wind: 8mph
Humidity: 86%   Direction: 240°WSW
Pressure: 30.09"   Gusts: NA
Location:  46.9755°N, 122.872°W
Report Text: KOLM 220254Z 24007KT 8SM SCT110 10/08 A3009 RMK AO2 RAB03E19 SLP190 P0000 60000 T01000078 50011
Loading
Personal Weather Stations






























Interactive Weather Map New forecast layout! Learn more

10-Day Weather Forecast

Advertisements
Track Severe Weather on mobile